Inicio METAR Ruta Wind Satelite

Informe Meteorológico

Fecha: 2021/09/21 15:35:44 Local
2021.09.21 20:35 UTC


Operación:MVFR
SKCL 212000Z 01005KT 7000 -DZ BKN020CB 25/22 Q1012 RERA NOSIG RMK CB/NE A2991 =

SKCL 211930Z 18007KT 7000 +RA BKN020 23/21 Q1013 NOSIG RMK A2992
SKCL 211900Z 01006KT 330V040 9999 5000SE -RA BKN020CB 28/19 Q1013 TEMPO TSRA RMK CB/SE A2994
SKCL 211800Z VRB05KT 9999 VCSH BKN025TCU 29/18 Q1014 BECMG BKN015CB
SKCL 211700Z VRB04KT 9999 FEW025 SCT150 29/18 Q1016 NOSIG RMK A3001
SKCL 211600Z 33006KT 310V070 9999 FEW025 BKN120 27/18 Q1017 NOSIG RMK A3005

2021/09/21 18:51
TAF SKCL 211630Z 2118/2218 34010KT 9999 SCT020 SCT130 PROB40
TEMPO 2120/2124 8000 VCTS SCT017CB
BECMG 2200/2202 VRB04KT FEW017 BKN120
TEMPO 2211/2214 8000 VCFG TX31/2119Z TN19/2211Z